sensor_id;sensor_type;location;lat;lon;timestamp;P1;durP1;ratioP1;P2;durP2;ratioP2
44824;SDS011;30542;47.928;2.138;2023-04-29T00:01:44;1.47;;;0.40;;
44824;SDS011;30542;47.928;2.138;2023-04-29T00:06:44;1.17;;;0.70;;
44824;SDS011;30542;47.928;2.138;2023-04-29T00:11:44;1.35;;;0.50;;
44824;SDS011;30542;47.928;2.138;2023-04-29T00:16:46;0.82;;;0.63;;
44824;SDS011;30542;47.928;2.138;2023-04-29T00:21:47;1.60;;;0.93;;
44824;SDS011;30542;47.928;2.138;2023-04-29T00:26:47;1.15;;;0.47;;
44824;SDS011;30542;47.928;2.138;2023-04-29T00:31:48;1.05;;;0.47;;
44824;SDS011;30542;47.928;2.138;2023-04-29T00:36:48;1.73;;;0.63;;
44824;SDS011;30542;47.928;2.138;2023-04-29T00:41:49;1.25;;;0.60;;
44824;SDS011;30542;47.928;2.138;2023-04-29T00:46:49;1.27;;;0.60;;
44824;SDS011;30542;47.928;2.138;2023-04-29T00:51:50;1.00;;;0.55;;
44824;SDS011;30542;47.928;2.138;2023-04-29T00:56:50;0.85;;;0.60;;
44824;SDS011;30542;47.928;2.138;2023-04-29T01:01:52;1.35;;;0.60;;
44824;SDS011;30542;47.928;2.138;2023-04-29T01:17:40;1.00;;;0.50;;
44824;SDS011;30542;47.928;2.138;2023-04-29T01:22:43;1.35;;;0.65;;
44824;SDS011;30542;47.928;2.138;2023-04-29T01:33:32;1.13;;;0.50;;
44824;SDS011;30542;47.928;2.138;2023-04-29T01:44:21;2.35;;;0.65;;
44824;SDS011;30542;47.928;2.138;2023-04-29T01:49:25;1.77;;;0.65;;
44824;SDS011;30542;47.928;2.138;2023-04-29T01:54:25;1.13;;;0.63;;
44824;SDS011;30542;47.928;2.138;2023-04-29T01:59:26;0.77;;;0.40;;
44824;SDS011;30542;47.928;2.138;2023-04-29T02:04:26;0.70;;;0.50;;
44824;SDS011;30542;47.928;2.138;2023-04-29T02:09:27;1.05;;;0.50;;
44824;SDS011;30542;47.928;2.138;2023-04-29T02:14:27;0.80;;;0.45;;
44824;SDS011;30542;47.928;2.138;2023-04-29T02:19:28;0.82;;;0.60;;
44824;SDS011;30542;47.928;2.138;2023-04-29T02:24:28;1.60;;;0.60;;
44824;SDS011;30542;47.928;2.138;2023-04-29T02:29:28;0.93;;;0.60;;
44824;SDS011;30542;47.928;2.138;2023-04-29T02:34:30;0.60;;;0.55;;
44824;SDS011;30542;47.928;2.138;2023-04-29T02:39:31;0.60;;;0.50;;
44824;SDS011;30542;47.928;2.138;2023-04-29T02:44:31;0.77;;;0.63;;
44824;SDS011;30542;47.928;2.138;2023-04-29T02:49:31;0.85;;;0.60;;
44824;SDS011;30542;47.928;2.138;2023-04-29T02:54:32;1.17;;;0.80;;
44824;SDS011;30542;47.928;2.138;2023-04-29T02:59:32;1.50;;;0.60;;
44824;SDS011;30542;47.928;2.138;2023-04-29T03:04:32;1.07;;;0.70;;
44824;SDS011;30542;47.928;2.138;2023-04-29T03:09:33;1.07;;;0.70;;
44824;SDS011;30542;47.928;2.138;2023-04-29T03:14:33;0.67;;;0.53;;
44824;SDS011;30542;47.928;2.138;2023-04-29T03:19:33;0.82;;;0.52;;
44824;SDS011;30542;47.928;2.138;2023-04-29T03:24:34;1.00;;;0.90;;
44824;SDS011;30542;47.928;2.138;2023-04-29T03:29:34;1.45;;;0.93;;
44824;SDS011;30542;47.928;2.138;2023-04-29T03:34:35;0.60;;;0.50;;
44824;SDS011;30542;47.928;2.138;2023-04-29T03:39:35;1.08;;;0.70;;
44824;SDS011;30542;47.928;2.138;2023-04-29T03:44:36;0.87;;;0.60;;
44824;SDS011;30542;47.928;2.138;2023-04-29T03:49:36;0.93;;;0.60;;
44824;SDS011;30542;47.928;2.138;2023-04-29T03:54:36;0.70;;;0.60;;
44824;SDS011;30542;47.928;2.138;2023-04-29T03:59:37;1.20;;;0.60;;
44824;SDS011;30542;47.928;2.138;2023-04-29T04:04:37;0.70;;;0.60;;
44824;SDS011;30542;47.928;2.138;2023-04-29T04:09:37;0.83;;;0.73;;
44824;SDS011;30542;47.928;2.138;2023-04-29T04:14:38;0.70;;;0.70;;
44824;SDS011;30542;47.928;2.138;2023-04-29T04:19:38;0.60;;;0.40;;
44824;SDS011;30542;47.928;2.138;2023-04-29T04:24:38;0.98;;;0.70;;
44824;SDS011;30542;47.928;2.138;2023-04-29T04:29:39;0.97;;;0.70;;
44824;SDS011;30542;47.928;2.138;2023-04-29T04:34:39;0.70;;;0.60;;
44824;SDS011;30542;47.928;2.138;2023-04-29T04:39:39;1.10;;;0.70;;
44824;SDS011;30542;47.928;2.138;2023-04-29T04:44:40;0.70;;;0.60;;
44824;SDS011;30542;47.928;2.138;2023-04-29T04:49:40;1.40;;;0.60;;
44824;SDS011;30542;47.928;2.138;2023-04-29T04:54:43;0.60;;;0.60;;
44824;SDS011;30542;47.928;2.138;2023-04-29T04:59:45;0.63;;;0.63;;
44824;SDS011;30542;47.928;2.138;2023-04-29T05:04:46;0.68;;;0.60;;
44824;SDS011;30542;47.928;2.138;2023-04-29T05:09:46;1.25;;;0.70;;
44824;SDS011;30542;47.928;2.138;2023-04-29T05:14:46;1.47;;;1.00;;
44824;SDS011;30542;47.928;2.138;2023-04-29T05:19:47;1.77;;;0.90;;
44824;SDS011;30542;47.928;2.138;2023-04-29T05:24:47;4.03;;;1.48;;
44824;SDS011;30542;47.928;2.138;2023-04-29T05:29:48;2.87;;;0.90;;
44824;SDS011;30542;47.928;2.138;2023-04-29T05:34:48;2.17;;;1.15;;
44824;SDS011;30542;47.928;2.138;2023-04-29T05:39:49;2.58;;;1.10;;
44824;SDS011;30542;47.928;2.138;2023-04-29T05:44:49;6.77;;;1.90;;
44824;SDS011;30542;47.928;2.138;2023-04-29T05:49:50;10.38;;;3.67;;
44824;SDS011;30542;47.928;2.138;2023-04-29T05:54:50;12.70;;;4.40;;
44824;SDS011;30542;47.928;2.138;2023-04-29T05:59:51;20.50;;;6.32;;
44824;SDS011;30542;47.928;2.138;2023-04-29T06:04:54;14.73;;;5.18;;
44824;SDS011;30542;47.928;2.138;2023-04-29T06:09:54;15.20;;;5.53;;
44824;SDS011;30542;47.928;2.138;2023-04-29T06:14:55;13.10;;;5.40;;
44824;SDS011;30542;47.928;2.138;2023-04-29T06:19:55;13.60;;;5.40;;
44824;SDS011;30542;47.928;2.138;2023-04-29T06:24:55;15.10;;;4.88;;
44824;SDS011;30542;47.928;2.138;2023-04-29T06:29:56;14.23;;;5.13;;
44824;SDS011;30542;47.928;2.138;2023-04-29T06:34:56;10.47;;;3.97;;
44824;SDS011;30542;47.928;2.138;2023-04-29T06:39:56;8.90;;;3.75;;
44824;SDS011;30542;47.928;2.138;2023-04-29T06:44:57;6.77;;;3.07;;
44824;SDS011;30542;47.928;2.138;2023-04-29T06:49:57;9.03;;;3.70;;
44824;SDS011;30542;47.928;2.138;2023-04-29T06:54:57;7.17;;;3.67;;
44824;SDS011;30542;47.928;2.138;2023-04-29T06:59:57;7.93;;;3.50;;
44824;SDS011;30542;47.928;2.138;2023-04-29T07:04:58;7.00;;;3.53;;
44824;SDS011;30542;47.928;2.138;2023-04-29T07:09:58;8.45;;;3.40;;
44824;SDS011;30542;47.928;2.138;2023-04-29T07:14:59;7.17;;;3.63;;
44824;SDS011;30542;47.928;2.138;2023-04-29T07:19:59;7.50;;;2.90;;
44824;SDS011;30542;47.928;2.138;2023-04-29T07:24:59;7.93;;;3.30;;
44824;SDS011;30542;47.928;2.138;2023-04-29T07:30:00;7.20;;;3.47;;
44824;SDS011;30542;47.928;2.138;2023-04-29T07:35:00;5.40;;;2.97;;
44824;SDS011;30542;47.928;2.138;2023-04-29T07:40:01;7.45;;;3.15;;
44824;SDS011;30542;47.928;2.138;2023-04-29T07:45:01;5.45;;;2.75;;
44824;SDS011;30542;47.928;2.138;2023-04-29T07:50:02;4.78;;;2.55;;
44824;SDS011;30542;47.928;2.138;2023-04-29T07:55:02;8.20;;;3.15;;
44824;SDS011;30542;47.928;2.138;2023-04-29T08:00:03;5.20;;;2.78;;
44824;SDS011;30542;47.928;2.138;2023-04-29T08:05:04;5.57;;;2.65;;
44824;SDS011;30542;47.928;2.138;2023-04-29T08:10:04;4.47;;;2.42;;
44824;SDS011;30542;47.928;2.138;2023-04-29T08:15:05;3.92;;;2.28;;
44824;SDS011;30542;47.928;2.138;2023-04-29T08:20:06;5.65;;;2.50;;
44824;SDS011;30542;47.928;2.138;2023-04-29T08:25:07;4.22;;;2.13;;
44824;SDS011;30542;47.928;2.138;2023-04-29T08:30:08;4.65;;;2.25;;
44824;SDS011;30542;47.928;2.138;2023-04-29T08:35:08;3.60;;;2.10;;
44824;SDS011;30542;47.928;2.138;2023-04-29T08:40:09;5.53;;;2.10;;
44824;SDS011;30542;47.928;2.138;2023-04-29T08:45:10;3.92;;;1.90;;
44824;SDS011;30542;47.928;2.138;2023-04-29T08:50:12;4.20;;;1.92;;
44824;SDS011;30542;47.928;2.138;2023-04-29T08:55:12;5.57;;;2.27;;
44824;SDS011;30542;47.928;2.138;2023-04-29T09:00:13;4.07;;;2.30;;
44824;SDS011;30542;47.928;2.138;2023-04-29T09:05:13;2.65;;;1.90;;
44824;SDS011;30542;47.928;2.138;2023-04-29T09:10:14;4.15;;;1.88;;
44824;SDS011;30542;47.928;2.138;2023-04-29T09:15:15;3.40;;;1.55;;
44824;SDS011;30542;47.928;2.138;2023-04-29T09:25:21;4.28;;;2.10;;
44824;SDS011;30542;47.928;2.138;2023-04-29T09:30:22;3.63;;;1.60;;
44824;SDS011;30542;47.928;2.138;2023-04-29T09:35:24;5.47;;;1.80;;
44824;SDS011;30542;47.928;2.138;2023-04-29T09:40:28;2.65;;;1.40;;
44824;SDS011;30542;47.928;2.138;2023-04-29T09:45:34;3.70;;;1.35;;
44824;SDS011;30542;47.928;2.138;2023-04-29T09:50:36;3.28;;;1.38;;
44824;SDS011;30542;47.928;2.138;2023-04-29T09:55:58;3.38;;;1.30;;
44824;SDS011;30542;47.928;2.138;2023-04-29T10:01:00;2.90;;;1.20;;
44824;SDS011;30542;47.928;2.138;2023-04-29T10:06:05;2.00;;;1.10;;
44824;SDS011;30542;47.928;2.138;2023-04-29T10:11:06;2.42;;;1.23;;
44824;SDS011;30542;47.928;2.138;2023-04-29T10:16:25;2.75;;;1.48;;
44824;SDS011;30542;47.928;2.138;2023-04-29T10:21:29;2.80;;;1.25;;
44824;SDS011;30542;47.928;2.138;2023-04-29T10:26:30;1.73;;;1.05;;
44824;SDS011;30542;47.928;2.138;2023-04-29T10:31:31;2.20;;;1.23;;
44824;SDS011;30542;47.928;2.138;2023-04-29T10:36:31;1.88;;;1.10;;
44824;SDS011;30542;47.928;2.138;2023-04-29T10:41:33;1.42;;;0.90;;
44824;SDS011;30542;47.928;2.138;2023-04-29T10:46:41;1.92;;;1.48;;
44824;SDS011;30542;47.928;2.138;2023-04-29T10:51:42;2.53;;;1.43;;
44824;SDS011;30542;47.928;2.138;2023-04-29T10:56:47;1.45;;;0.90;;
44824;SDS011;30542;47.928;2.138;2023-04-29T11:01:50;1.48;;;1.33;;
44824;SDS011;30542;47.928;2.138;2023-04-29T11:06:52;1.30;;;0.90;;
44824;SDS011;30542;47.928;2.138;2023-04-29T11:17:00;2.58;;;1.15;;
44824;SDS011;30542;47.928;2.138;2023-04-29T11:22:10;1.85;;;1.05;;
44824;SDS011;30542;47.928;2.138;2023-04-29T11:27:14;2.55;;;1.05;;
44824;SDS011;30542;47.928;2.138;2023-04-29T11:32:19;2.03;;;1.13;;
44824;SDS011;30542;47.928;2.138;2023-04-29T11:37:24;1.67;;;1.08;;
44824;SDS011;30542;47.928;2.138;2023-04-29T11:42:26;1.50;;;1.13;;
44824;SDS011;30542;47.928;2.138;2023-04-29T11:47:27;1.75;;;0.82;;
44824;SDS011;30542;47.928;2.138;2023-04-29T11:52:29;1.27;;;0.63;;
44824;SDS011;30542;47.928;2.138;2023-04-29T11:57:29;1.75;;;1.05;;
44824;SDS011;30542;47.928;2.138;2023-04-29T12:02:30;1.25;;;1.10;;
44824;SDS011;30542;47.928;2.138;2023-04-29T12:07:31;1.98;;;0.85;;
44824;SDS011;30542;47.928;2.138;2023-04-29T12:12:31;1.42;;;1.08;;
44824;SDS011;30542;47.928;2.138;2023-04-29T12:17:35;2.15;;;1.17;;
44824;SDS011;30542;47.928;2.138;2023-04-29T12:22:36;0.95;;;0.70;;
44824;SDS011;30542;47.928;2.138;2023-04-29T12:27:38;1.90;;;1.57;;
44824;SDS011;30542;47.928;2.138;2023-04-29T12:32:40;1.40;;;1.30;;
44824;SDS011;30542;47.928;2.138;2023-04-29T12:37:41;2.77;;;2.57;;
44824;SDS011;30542;47.928;2.138;2023-04-29T12:42:41;1.60;;;1.50;;
44824;SDS011;30542;47.928;2.138;2023-04-29T12:47:43;2.00;;;1.58;;
44824;SDS011;30542;47.928;2.138;2023-04-29T12:52:44;2.30;;;2.10;;
44824;SDS011;30542;47.928;2.138;2023-04-29T12:57:44;2.17;;;2.05;;
44824;SDS011;30542;47.928;2.138;2023-04-29T13:02:45;3.87;;;3.57;;
44824;SDS011;30542;47.928;2.138;2023-04-29T13:07:46;2.30;;;2.10;;
44824;SDS011;30542;47.928;2.138;2023-04-29T13:12:46;2.33;;;1.90;;
44824;SDS011;30542;47.928;2.138;2023-04-29T13:17:47;2.30;;;2.10;;
44824;SDS011;30542;47.928;2.138;2023-04-29T13:22:47;3.35;;;3.05;;
44824;SDS011;30542;47.928;2.138;2023-04-29T13:27:48;2.83;;;2.60;;
44824;SDS011;30542;47.928;2.138;2023-04-29T13:32:48;2.35;;;2.15;;
44824;SDS011;30542;47.928;2.138;2023-04-29T13:37:49;3.10;;;2.90;;
44824;SDS011;30542;47.928;2.138;2023-04-29T13:42:49;2.60;;;2.50;;
44824;SDS011;30542;47.928;2.138;2023-04-29T13:47:49;2.57;;;2.37;;
44824;SDS011;30542;47.928;2.138;2023-04-29T13:52:50;2.53;;;2.33;;
44824;SDS011;30542;47.928;2.138;2023-04-29T13:57:50;2.60;;;2.10;;
44824;SDS011;30542;47.928;2.138;2023-04-29T14:02:52;3.25;;;2.60;;
44824;SDS011;30542;47.928;2.138;2023-04-29T14:07:52;2.80;;;2.60;;
44824;SDS011;30542;47.928;2.138;2023-04-29T14:12:53;2.70;;;2.50;;
44824;SDS011;30542;47.928;2.138;2023-04-29T14:17:53;2.58;;;2.45;;
44824;SDS011;30542;47.928;2.138;2023-04-29T14:22:54;2.65;;;2.45;;
44824;SDS011;30542;47.928;2.138;2023-04-29T14:27:54;2.60;;;2.40;;
44824;SDS011;30542;47.928;2.138;2023-04-29T14:32:54;3.03;;;2.83;;
44824;SDS011;30542;47.928;2.138;2023-04-29T14:37:55;2.77;;;2.57;;
44824;SDS011;30542;47.928;2.138;2023-04-29T14:42:55;3.65;;;3.38;;
44824;SDS011;30542;47.928;2.138;2023-04-29T14:47:55;3.10;;;2.90;;
44824;SDS011;30542;47.928;2.138;2023-04-29T14:52:56;2.72;;;2.53;;
44824;SDS011;30542;47.928;2.138;2023-04-29T14:57:57;2.58;;;2.40;;
44824;SDS011;30542;47.928;2.138;2023-04-29T15:02:57;2.90;;;2.70;;
44824;SDS011;30542;47.928;2.138;2023-04-29T15:07:57;3.10;;;2.90;;
44824;SDS011;30542;47.928;2.138;2023-04-29T15:13:00;2.58;;;2.47;;
44824;SDS011;30542;47.928;2.138;2023-04-29T15:18:01;3.10;;;2.90;;
44824;SDS011;30542;47.928;2.138;2023-04-29T15:23:01;2.50;;;2.40;;
44824;SDS011;30542;47.928;2.138;2023-04-29T15:28:02;2.45;;;2.30;;
44824;SDS011;30542;47.928;2.138;2023-04-29T15:33:03;3.10;;;2.90;;
44824;SDS011;30542;47.928;2.138;2023-04-29T15:38:04;2.85;;;2.65;;
44824;SDS011;30542;47.928;2.138;2023-04-29T15:43:04;2.80;;;2.60;;
44824;SDS011;30542;47.928;2.138;2023-04-29T15:48:05;2.53;;;2.33;;
44824;SDS011;30542;47.928;2.138;2023-04-29T15:53:05;2.60;;;2.40;;
44824;SDS011;30542;47.928;2.138;2023-04-29T15:58:06;2.63;;;2.43;;
44824;SDS011;30542;47.928;2.138;2023-04-29T16:03:06;2.50;;;2.40;;
44824;SDS011;30542;47.928;2.138;2023-04-29T16:08:06;3.13;;;2.87;;
44824;SDS011;30542;47.928;2.138;2023-04-29T16:13:07;2.83;;;2.63;;
44824;SDS011;30542;47.928;2.138;2023-04-29T16:18:07;2.80;;;2.60;;
44824;SDS011;30542;47.928;2.138;2023-04-29T16:23:07;2.90;;;2.60;;
44824;SDS011;30542;47.928;2.138;2023-04-29T16:28:08;3.17;;;2.97;;
44824;SDS011;30542;47.928;2.138;2023-04-29T16:33:08;3.40;;;3.10;;
44824;SDS011;30542;47.928;2.138;2023-04-29T16:38:08;3.13;;;2.93;;
44824;SDS011;30542;47.928;2.138;2023-04-29T16:43:09;2.83;;;2.63;;
44824;SDS011;30542;47.928;2.138;2023-04-29T16:48:13;2.53;;;2.42;;
44824;SDS011;30542;47.928;2.138;2023-04-29T16:53:13;4.13;;;3.83;;
44824;SDS011;30542;47.928;2.138;2023-04-29T16:58:13;5.43;;;4.87;;
44824;SDS011;30542;47.928;2.138;2023-04-29T17:03:14;5.87;;;5.37;;
44824;SDS011;30542;47.928;2.138;2023-04-29T17:08:14;5.68;;;5.25;;
44824;SDS011;30542;47.928;2.138;2023-04-29T17:13:15;6.70;;;6.10;;
44824;SDS011;30542;47.928;2.138;2023-04-29T17:18:16;6.63;;;6.03;;
44824;SDS011;30542;47.928;2.138;2023-04-29T17:23:18;7.82;;;6.32;;
44824;SDS011;30542;47.928;2.138;2023-04-29T17:28:18;7.37;;;6.50;;
44824;SDS011;30542;47.928;2.138;2023-04-29T17:33:19;6.93;;;6.37;;
44824;SDS011;30542;47.928;2.138;2023-04-29T17:38:19;7.10;;;6.50;;
44824;SDS011;30542;47.928;2.138;2023-04-29T17:43:19;7.43;;;6.65;;
44824;SDS011;30542;47.928;2.138;2023-04-29T17:48:20;6.30;;;5.70;;
44824;SDS011;30542;47.928;2.138;2023-04-29T17:53:21;5.70;;;5.20;;
44824;SDS011;30542;47.928;2.138;2023-04-29T17:58:21;5.40;;;5.00;;
44824;SDS011;30542;47.928;2.138;2023-04-29T18:03:22;5.83;;;5.20;;
44824;SDS011;30542;47.928;2.138;2023-04-29T18:08:22;4.82;;;4.53;;
44824;SDS011;30542;47.928;2.138;2023-04-29T18:13:22;4.75;;;4.32;;
44824;SDS011;30542;47.928;2.138;2023-04-29T18:18:23;5.27;;;4.87;;
44824;SDS011;30542;47.928;2.138;2023-04-29T18:23:23;4.83;;;4.40;;
44824;SDS011;30542;47.928;2.138;2023-04-29T18:28:24;4.90;;;4.40;;
44824;SDS011;30542;47.928;2.138;2023-04-29T18:33:24;4.37;;;4.07;;
44824;SDS011;30542;47.928;2.138;2023-04-29T18:38:25;3.67;;;3.42;;
44824;SDS011;30542;47.928;2.138;2023-04-29T18:43:25;4.70;;;4.30;;
44824;SDS011;30542;47.928;2.138;2023-04-29T18:48:28;4.22;;;3.83;;
44824;SDS011;30542;47.928;2.138;2023-04-29T18:53:30;5.20;;;3.92;;
44824;SDS011;30542;47.928;2.138;2023-04-29T18:58:30;3.72;;;3.42;;
44824;SDS011;30542;47.928;2.138;2023-04-29T19:03:30;4.00;;;3.70;;
44824;SDS011;30542;47.928;2.138;2023-04-29T19:08:31;4.80;;;4.40;;
44824;SDS011;30542;47.928;2.138;2023-04-29T19:13:31;5.47;;;3.50;;
44824;SDS011;30542;47.928;2.138;2023-04-29T19:18:31;4.20;;;3.83;;
44824;SDS011;30542;47.928;2.138;2023-04-29T19:23:32;4.07;;;3.75;;
44824;SDS011;30542;47.928;2.138;2023-04-29T19:28:32;3.72;;;3.42;;
44824;SDS011;30542;47.928;2.138;2023-04-29T19:33:32;3.47;;;3.17;;
44824;SDS011;30542;47.928;2.138;2023-04-29T19:38:33;3.70;;;3.50;;
44824;SDS011;30542;47.928;2.138;2023-04-29T19:43:33;3.30;;;3.10;;
44824;SDS011;30542;47.928;2.138;2023-04-29T19:48:33;2.93;;;2.73;;
44824;SDS011;30542;47.928;2.138;2023-04-29T19:53:34;3.77;;;3.47;;
44824;SDS011;30542;47.928;2.138;2023-04-29T19:58:35;3.33;;;3.13;;
44824;SDS011;30542;47.928;2.138;2023-04-29T20:03:36;3.35;;;3.05;;
44824;SDS011;30542;47.928;2.138;2023-04-29T20:08:38;3.30;;;3.10;;
44824;SDS011;30542;47.928;2.138;2023-04-29T20:13:39;3.00;;;2.80;;
44824;SDS011;30542;47.928;2.138;2023-04-29T20:18:39;2.87;;;2.67;;
44824;SDS011;30542;47.928;2.138;2023-04-29T20:23:39;3.17;;;2.97;;
44824;SDS011;30542;47.928;2.138;2023-04-29T20:28:40;3.28;;;2.78;;
44824;SDS011;30542;47.928;2.138;2023-04-29T20:33:40;3.05;;;2.85;;
44824;SDS011;30542;47.928;2.138;2023-04-29T20:38:41;3.20;;;3.00;;
44824;SDS011;30542;47.928;2.138;2023-04-29T20:43:41;3.40;;;3.13;;
44824;SDS011;30542;47.928;2.138;2023-04-29T20:48:41;2.92;;;2.72;;
44824;SDS011;30542;47.928;2.138;2023-04-29T20:53:42;2.70;;;2.50;;
44824;SDS011;30542;47.928;2.138;2023-04-29T20:58:42;3.23;;;3.03;;
44824;SDS011;30542;47.928;2.138;2023-04-29T21:03:43;2.73;;;2.57;;
44824;SDS011;30542;47.928;2.138;2023-04-29T21:08:43;3.10;;;2.90;;
44824;SDS011;30542;47.928;2.138;2023-04-29T21:13:43;2.97;;;2.77;;
44824;SDS011;30542;47.928;2.138;2023-04-29T21:18:48;2.88;;;2.67;;
44824;SDS011;30542;47.928;2.138;2023-04-29T21:23:49;2.70;;;2.53;;
44824;SDS011;30542;47.928;2.138;2023-04-29T21:28:49;2.92;;;2.72;;
44824;SDS011;30542;47.928;2.138;2023-04-29T21:33:50;3.00;;;2.80;;
44824;SDS011;30542;47.928;2.138;2023-04-29T21:38:50;2.90;;;2.70;;
44824;SDS011;30542;47.928;2.138;2023-04-29T21:43:53;2.80;;;2.60;;
44824;SDS011;30542;47.928;2.138;2023-04-29T21:48:56;2.95;;;2.75;;
44824;SDS011;30542;47.928;2.138;2023-04-29T21:53:56;3.13;;;2.90;;
44824;SDS011;30542;47.928;2.138;2023-04-29T21:58:57;3.05;;;2.85;;
44824;SDS011;30542;47.928;2.138;2023-04-29T22:03:57;2.83;;;2.63;;
44824;SDS011;30542;47.928;2.138;2023-04-29T22:08:58;3.30;;;3.00;;
44824;SDS011;30542;47.928;2.138;2023-04-29T22:13:58;3.23;;;3.03;;
44824;SDS011;30542;47.928;2.138;2023-04-29T22:18:58;2.57;;;2.47;;
44824;SDS011;30542;47.928;2.138;2023-04-29T22:23:59;3.25;;;2.80;;
44824;SDS011;30542;47.928;2.138;2023-04-29T22:28:59;2.63;;;2.42;;
44824;SDS011;30542;47.928;2.138;2023-04-29T22:33:59;3.00;;;2.80;;
44824;SDS011;30542;47.928;2.138;2023-04-29T22:39:00;3.17;;;2.80;;
44824;SDS011;30542;47.928;2.138;2023-04-29T22:44:00;2.73;;;2.63;;
44824;SDS011;30542;47.928;2.138;2023-04-29T22:49:00;3.15;;;2.95;;
44824;SDS011;30542;47.928;2.138;2023-04-29T22:54:01;2.50;;;2.38;;
44824;SDS011;30542;47.928;2.138;2023-04-29T22:59:01;2.67;;;2.47;;
44824;SDS011;30542;47.928;2.138;2023-04-29T23:04:01;2.97;;;2.80;;
44824;SDS011;30542;47.928;2.138;2023-04-29T23:09:02;2.42;;;2.22;;
44824;SDS011;30542;47.928;2.138;2023-04-29T23:14:02;2.30;;;2.20;;
44824;SDS011;30542;47.928;2.138;2023-04-29T23:19:04;3.03;;;2.83;;
44824;SDS011;30542;47.928;2.138;2023-04-29T23:24:04;3.10;;;2.90;;
44824;SDS011;30542;47.928;2.138;2023-04-29T23:29:05;2.50;;;2.30;;
44824;SDS011;30542;47.928;2.138;2023-04-29T23:34:05;2.47;;;2.37;;
44824;SDS011;30542;47.928;2.138;2023-04-29T23:39:06;2.95;;;2.75;;
44824;SDS011;30542;47.928;2.138;2023-04-29T23:44:07;2.77;;;2.57;;
44824;SDS011;30542;47.928;2.138;2023-04-29T23:49:07;2.27;;;2.17;;
44824;SDS011;30542;47.928;2.138;2023-04-29T23:54:09;2.70;;;2.50;;
44824;SDS011;30542;47.928;2.138;2023-04-29T23:59:09;2.38;;;2.28;;
